createdAt,value
2019-05-21T00:02:02.266Z,14.76
2019-05-21T00:04:30.903Z,14.70
2019-05-21T00:06:59.503Z,15.07
2019-05-21T00:09:28.152Z,14.95
2019-05-21T00:11:56.757Z,15.18
2019-05-21T00:14:25.391Z,15.11
2019-05-21T00:16:54.022Z,15.15
2019-05-21T00:19:23.079Z,15.15
2019-05-21T00:21:51.674Z,15.34
2019-05-21T00:24:20.277Z,15.30
2019-05-21T00:26:48.870Z,15.41
2019-05-21T00:29:53.919Z,15.33
2019-05-21T00:32:59.061Z,15.28
2019-05-21T00:36:03.895Z,15.34
2019-05-21T00:39:08.748Z,15.28
2019-05-21T00:42:02.602Z,15.36
2019-05-21T00:44:34.233Z,15.18
2019-05-21T00:47:04.352Z,15.15
2019-05-21T00:49:32.992Z,15.16
2019-05-21T00:52:07.965Z,15.18
2019-05-21T00:54:31.982Z,15.12
2019-05-21T00:57:00.676Z,15.13
2019-05-21T00:59:29.322Z,15.01
2019-05-21T01:01:57.978Z,15.10
2019-05-21T01:04:26.625Z,15.16
2019-05-21T01:06:55.242Z,15.03
2019-05-21T01:09:23.852Z,15.07
2019-05-21T01:11:52.540Z,15.08
2019-05-21T01:14:21.150Z,15.07
2019-05-21T01:16:49.809Z,15.08
2019-05-21T01:19:18.392Z,15.00
2019-05-21T01:21:47.025Z,14.87
2019-05-21T01:24:15.622Z,14.71
2019-05-21T01:26:44.584Z,14.89
2019-05-21T01:29:13.214Z,14.94
2019-05-21T01:31:42.097Z,14.94
2019-05-21T01:34:11.586Z,14.94
2019-05-21T01:36:40.518Z,14.79
2019-05-21T01:39:09.114Z,14.87
2019-05-21T01:41:37.714Z,14.89
2019-05-21T01:44:06.308Z,14.96
2019-05-21T01:46:34.902Z,14.69
2019-05-21T01:49:03.614Z,14.66
2019-05-21T01:51:32.277Z,14.13
2019-05-21T01:54:00.896Z,14.57
2019-05-21T01:56:29.540Z,14.65
2019-05-21T01:58:58.240Z,14.67
2019-05-21T02:01:26.858Z,14.65
2019-05-21T02:03:55.536Z,14.81
2019-05-21T02:06:24.877Z,14.75
2019-05-21T02:08:53.436Z,14.61
2019-05-21T02:11:22.091Z,14.60
2019-05-21T02:13:50.695Z,14.68
2019-05-21T02:16:19.310Z,14.54
2019-05-21T02:18:47.913Z,14.58
2019-05-21T02:21:16.599Z,14.66
2019-05-21T02:23:45.178Z,14.62
2019-05-21T02:26:13.845Z,14.52
2019-05-21T02:28:42.491Z,14.26
2019-05-21T02:31:11.139Z,13.93
2019-05-21T02:33:39.703Z,14.35
2019-05-21T02:36:08.455Z,14.25
2019-05-21T02:38:37.018Z,14.58
2019-05-21T02:41:05.684Z,14.10
2019-05-21T02:43:34.336Z,14.23
2019-05-21T02:46:04.293Z,14.43
2019-05-21T02:48:32.861Z,14.54
2019-05-21T02:51:01.541Z,14.46
2019-05-21T02:53:34.184Z,13.68
2019-05-21T02:56:00.558Z,13.99
2019-05-21T02:58:29.191Z,14.31
2019-05-21T03:01:05.422Z,14.27
2019-05-21T03:03:35.647Z,14.42
2019-05-21T03:06:13.938Z,14.33
2019-05-21T03:08:34.726Z,14.07
2019-05-21T03:11:03.435Z,13.97
2019-05-21T03:13:32.037Z,13.07
2019-05-21T03:16:00.725Z,13.66
2019-05-21T03:18:29.306Z,13.97
2019-05-21T03:20:57.931Z,14.03
2019-05-21T03:23:26.508Z,14.25
2019-05-21T03:25:55.266Z,14.23
2019-05-21T03:28:23.836Z,13.97
2019-05-21T03:30:52.511Z,14.14
2019-05-21T03:33:21.117Z,14.19
2019-05-21T03:35:49.851Z,14.29
2019-05-21T03:38:18.514Z,14.38
2019-05-21T03:40:47.294Z,14.35
2019-05-21T03:43:15.855Z,14.20
2019-05-21T03:45:44.555Z,14.49
2019-05-21T03:48:13.207Z,14.23
2019-05-21T03:50:41.834Z,14.12
2019-05-21T03:53:10.418Z,14.39
2019-05-21T03:55:39.027Z,14.35
2019-05-21T03:58:07.665Z,14.28
2019-05-21T04:00:36.326Z,14.32
2019-05-21T04:03:04.979Z,14.35
2019-05-21T04:05:33.719Z,14.33
2019-05-21T04:08:02.296Z,14.26
2019-05-21T04:10:31.013Z,14.43
2019-05-21T04:13:06.374Z,14.53
2019-05-21T04:15:38.054Z,14.45
2019-05-21T04:18:08.361Z,14.67
2019-05-21T04:20:36.989Z,14.71
2019-05-21T04:23:05.585Z,14.80
2019-05-21T04:25:34.414Z,14.66
2019-05-21T04:28:03.109Z,14.77
2019-05-21T04:30:31.731Z,14.87
2019-05-21T04:33:00.305Z,14.81
2019-05-21T04:35:28.958Z,14.89
2019-05-21T04:37:57.571Z,14.96
2019-05-21T04:40:26.295Z,14.96
2019-05-21T04:42:54.900Z,14.95
2019-05-21T04:45:23.585Z,14.92
2019-05-21T04:47:52.216Z,15.06
2019-05-21T04:50:20.870Z,14.95
2019-05-21T04:52:49.518Z,15.14
2019-05-21T04:55:18.164Z,15.15
2019-05-21T04:57:46.776Z,15.19
2019-05-21T05:00:15.641Z,15.16
2019-05-21T05:02:44.250Z,15.31
2019-05-21T05:05:13.011Z,15.33
2019-05-21T05:07:41.625Z,15.47
2019-05-21T05:10:10.557Z,15.20
2019-05-21T05:12:39.149Z,15.35
2019-05-21T05:15:08.160Z,15.34
2019-05-21T05:17:36.797Z,15.39
2019-05-21T05:20:06.062Z,15.42
2019-05-21T05:22:34.667Z,15.60
2019-05-21T05:25:04.664Z,15.63
2019-05-21T05:27:33.281Z,15.67
2019-05-21T05:30:01.946Z,15.73
2019-05-21T05:32:30.547Z,15.43
2019-05-21T05:34:59.185Z,15.60
2019-05-21T05:37:42.568Z,15.57
2019-05-21T05:39:58.138Z,15.68
2019-05-21T05:42:26.741Z,15.94
2019-05-21T05:44:55.332Z,16.10
2019-05-21T05:47:23.945Z,16.15
2019-05-21T05:50:00.437Z,16.18
2019-05-21T05:52:29.086Z,16.04
2019-05-21T05:54:57.720Z,16.10
2019-05-21T05:57:26.454Z,16.05
2019-05-21T05:59:55.035Z,16.08
2019-05-21T06:02:23.784Z,16.25
2019-05-21T06:04:52.421Z,16.14
2019-05-21T06:07:21.073Z,16.26
2019-05-21T06:09:50.233Z,16.50
2019-05-21T06:12:18.844Z,16.95
2019-05-21T06:14:47.442Z,17.17
2019-05-21T06:17:16.141Z,17.25
2019-05-21T06:19:44.828Z,17.81
2019-05-21T06:22:13.542Z,17.82
2019-05-21T06:24:42.128Z,17.25
2019-05-21T06:27:10.878Z,17.89
2019-05-21T06:29:39.828Z,18.42
2019-05-21T06:32:08.601Z,19.37
2019-05-21T06:34:37.179Z,19.13
2019-05-21T06:37:05.881Z,19.28
2019-05-21T06:39:34.500Z,19.67
2019-05-21T06:42:03.210Z,19.69
2019-05-21T06:44:31.777Z,20.05
2019-05-21T06:47:00.418Z,18.77
2019-05-21T06:49:29.001Z,19.17
2019-05-21T06:51:57.633Z,18.53
2019-05-21T06:54:26.239Z,19.08
2019-05-21T06:56:54.989Z,19.50
2019-05-21T06:59:23.632Z,19.23
2019-05-21T07:01:52.417Z,18.93
2019-05-21T07:04:20.997Z,18.78
2019-05-21T07:06:49.642Z,19.29
2019-05-21T07:09:19.845Z,19.72
2019-05-21T07:11:48.476Z,18.80
2019-05-21T07:14:17.059Z,19.76
2019-05-21T07:16:45.680Z,18.73
2019-05-21T07:19:14.309Z,19.16
2019-05-21T07:21:43.035Z,19.57
2019-05-21T07:24:11.639Z,18.52
2019-05-21T07:26:40.349Z,18.95
2019-05-21T07:29:09.020Z,18.78
2019-05-21T07:31:37.659Z,19.01
2019-05-21T07:34:06.235Z,18.82
2019-05-21T07:36:34.854Z,18.99
2019-05-21T07:39:04.714Z,18.55
2019-05-21T07:41:33.481Z,18.62
2019-05-21T07:44:02.080Z,18.88
2019-05-21T07:46:30.756Z,18.80
2019-05-21T07:48:59.330Z,18.68
2019-05-21T07:51:28.027Z,18.69
2019-05-21T07:53:56.606Z,18.71
2019-05-21T07:56:25.253Z,18.89
2019-05-21T07:58:53.825Z,18.95
2019-05-21T08:01:22.592Z,19.37
2019-05-21T08:03:51.239Z,19.39
2019-05-21T08:06:19.904Z,19.47
2019-05-21T08:08:48.539Z,19.65
2019-05-21T08:11:17.211Z,19.53
2019-05-21T08:13:45.790Z,19.22
2019-05-21T08:16:14.416Z,19.04
2019-05-21T08:18:42.986Z,19.54
2019-05-21T08:21:11.623Z,19.34
2019-05-21T08:23:40.191Z,19.21
2019-05-21T08:26:08.918Z,19.63
2019-05-21T08:28:37.496Z,19.30
2019-05-21T08:31:06.350Z,19.76
2019-05-21T08:33:35.019Z,19.54
2019-05-21T08:36:04.526Z,19.55
2019-05-21T08:38:33.742Z,19.56
2019-05-21T08:41:02.317Z,19.40
2019-05-21T08:43:30.942Z,19.67
2019-05-21T08:45:59.504Z,19.86
2019-05-21T08:48:28.160Z,20.07
2019-05-21T08:50:56.743Z,19.99
2019-05-21T08:53:25.484Z,19.98
2019-05-21T08:55:54.134Z,19.80
2019-05-21T08:58:22.835Z,20.06
2019-05-21T09:00:51.417Z,20.21
2019-05-21T09:03:20.080Z,20.18
2019-05-21T09:05:48.660Z,20.17
2019-05-21T09:08:17.322Z,20.22
2019-05-21T09:10:45.883Z,20.24
2019-05-21T09:13:17.767Z,20.78
2019-05-21T09:15:44.969Z,20.94
2019-05-21T09:18:13.972Z,20.71
2019-05-21T09:20:42.541Z,20.84
2019-05-21T09:23:11.213Z,20.85
2019-05-21T09:25:39.874Z,20.54
2019-05-21T09:28:08.579Z,20.68
2019-05-21T09:30:37.220Z,20.80
2019-05-21T09:33:05.854Z,21.10
2019-05-21T09:35:34.568Z,20.78
2019-05-21T09:38:03.282Z,21.00
2019-05-21T09:40:32.224Z,20.97
2019-05-21T09:43:00.933Z,21.08
2019-05-21T09:45:29.488Z,20.27
2019-05-21T09:47:58.181Z,20.98
2019-05-21T09:50:26.848Z,21.46
2019-05-21T09:52:55.469Z,21.51
2019-05-21T09:55:24.071Z,21.78
2019-05-21T09:57:57.011Z,21.76
2019-05-21T10:00:36.471Z,20.25
2019-05-21T10:03:06.937Z,20.47
2019-05-21T10:05:35.511Z,20.66
2019-05-21T10:08:04.499Z,20.37
2019-05-21T10:10:33.062Z,20.78
2019-05-21T10:13:01.666Z,21.48
2019-05-21T10:15:30.249Z,21.60
2019-05-21T10:17:58.873Z,21.52
2019-05-21T10:20:27.431Z,20.88
2019-05-21T10:22:56.136Z,21.02
2019-05-21T10:25:24.765Z,21.04
2019-05-21T10:27:53.403Z,21.41
2019-05-21T10:30:21.984Z,20.96
2019-05-21T10:32:50.651Z,20.84
2019-05-21T10:35:19.214Z,21.36
2019-05-21T10:37:55.106Z,21.56
2019-05-21T10:40:18.621Z,21.80
2019-05-21T10:42:47.214Z,21.96
2019-05-21T10:45:15.923Z,21.81
2019-05-21T10:47:45.079Z,22.43
2019-05-21T10:50:13.801Z,22.19
2019-05-21T10:52:42.455Z,22.21
2019-05-21T10:55:15.818Z,22.71
2019-05-21T10:57:43.017Z,22.35
2019-05-21T11:00:13.762Z,22.35
2019-05-21T11:02:46.876Z,22.01
2019-05-21T11:05:28.864Z,22.46
2019-05-21T11:07:56.473Z,22.39
2019-05-21T11:10:25.095Z,22.23
2019-05-21T11:12:53.737Z,22.12
2019-05-21T11:15:22.865Z,22.72
2019-05-21T11:18:09.200Z,22.85
2019-05-21T11:20:21.856Z,22.47
2019-05-21T11:22:50.469Z,22.90
2019-05-21T11:25:19.080Z,22.92
2019-05-21T11:27:47.757Z,22.89
2019-05-21T11:30:17.678Z,22.59
2019-05-21T11:32:48.069Z,22.49
2019-05-21T11:35:16.846Z,22.36
2019-05-21T11:37:47.901Z,22.34
2019-05-21T11:40:16.534Z,22.26
2019-05-21T11:42:45.159Z,22.62
2019-05-21T11:45:30.722Z,22.41
2019-05-21T11:47:44.498Z,22.14
2019-05-21T11:50:14.333Z,22.05
2019-05-21T11:52:43.041Z,21.92
2019-05-21T11:55:11.995Z,22.03
2019-05-21T11:57:40.611Z,22.03
2019-05-21T12:00:11.113Z,21.82
2019-05-21T12:02:39.918Z,21.94
2019-05-21T12:05:08.575Z,21.86
2019-05-21T12:07:37.242Z,22.02
2019-05-21T12:10:09.321Z,22.08
2019-05-21T12:12:38.139Z,22.31
2019-05-21T12:15:07.769Z,22.22
2019-05-21T12:17:36.391Z,21.97
2019-05-21T12:20:09.191Z,21.96
2019-05-21T12:22:37.839Z,21.96
2019-05-21T12:25:06.955Z,22.08
2019-05-21T12:27:35.682Z,22.10
2019-05-21T12:30:08.890Z,22.40
2019-05-21T12:32:37.530Z,22.18
2019-05-21T12:35:06.449Z,21.74
2019-05-21T12:37:35.250Z,21.79
2019-05-21T12:40:08.113Z,21.96
2019-05-21T12:42:36.741Z,21.82
2019-05-21T12:45:06.901Z,21.86
2019-05-21T12:47:35.536Z,21.96
2019-05-21T12:50:05.362Z,22.03
2019-05-21T12:52:34.062Z,22.12
2019-05-21T12:55:03.089Z,22.34
2019-05-21T12:57:31.734Z,22.28
2019-05-21T13:00:00.336Z,22.29
2019-05-21T13:02:29.045Z,22.26
2019-05-21T13:04:57.627Z,22.11
2019-05-21T13:07:26.601Z,22.15
2019-05-21T13:09:55.203Z,22.32
2019-05-21T13:12:23.815Z,22.46
2019-05-21T13:14:52.478Z,22.62
2019-05-21T13:17:21.122Z,22.85
2019-05-21T13:19:49.698Z,22.63
2019-05-21T13:22:18.424Z,22.37
2019-05-21T13:24:47.011Z,22.42
2019-05-21T13:27:15.618Z,22.54
2019-05-21T13:29:44.277Z,22.65
2019-05-21T13:32:12.919Z,22.72
2019-05-21T13:34:41.512Z,22.66
2019-05-21T13:37:10.314Z,22.91
2019-05-21T13:39:49.518Z,23.08
2019-05-21T13:42:09.210Z,23.01
2019-05-21T13:44:37.810Z,23.07
2019-05-21T13:47:06.539Z,23.34
2019-05-21T13:49:35.167Z,23.05
2019-05-21T13:52:03.786Z,22.82
2019-05-21T13:54:32.421Z,22.68
2019-05-21T13:57:01.000Z,23.03
2019-05-21T13:59:29.667Z,22.82
2019-05-21T14:01:58.728Z,22.82
2019-05-21T14:04:27.305Z,22.65
2019-05-21T14:06:56.116Z,22.49
2019-05-21T14:09:25.062Z,22.41
2019-05-21T14:11:54.075Z,22.33
2019-05-21T14:14:22.741Z,22.43
2019-05-21T14:16:51.360Z,22.33
2019-05-21T14:19:20.083Z,22.35
2019-05-21T14:21:48.699Z,22.70
2019-05-21T14:24:17.324Z,22.70
2019-05-21T14:26:45.912Z,22.97
2019-05-21T14:29:14.565Z,22.95
2019-05-21T14:31:43.218Z,23.07
2019-05-21T14:34:11.900Z,23.42
2019-05-21T14:36:40.480Z,23.38
2019-05-21T14:39:10.744Z,23.40
2019-05-21T14:41:39.348Z,23.48
2019-05-21T14:44:07.952Z,23.42
2019-05-21T14:46:36.552Z,23.23
2019-05-21T14:49:05.233Z,23.28
2019-05-21T14:51:33.815Z,23.11
2019-05-21T14:54:05.744Z,23.17
2019-05-21T14:56:34.305Z,23.40
2019-05-21T14:59:02.991Z,23.18
2019-05-21T15:01:31.606Z,23.46
2019-05-21T15:04:00.446Z,23.23
2019-05-21T15:06:29.148Z,23.45
2019-05-21T15:08:57.750Z,23.07
2019-05-21T15:11:26.342Z,23.44
2019-05-21T15:13:54.992Z,23.39
2019-05-21T15:16:25.119Z,23.31
2019-05-21T15:18:53.717Z,23.40
2019-05-21T15:21:24.024Z,23.23
2019-05-21T15:23:52.894Z,23.28
2019-05-21T15:26:21.504Z,23.37
2019-05-21T15:28:50.141Z,22.97
2019-05-21T15:31:18.830Z,22.80
2019-05-21T15:33:47.449Z,23.03
2019-05-21T15:36:16.033Z,22.70
2019-05-21T15:38:50.715Z,22.62
2019-05-21T15:41:14.935Z,22.50
2019-05-21T15:43:43.570Z,22.50
2019-05-21T15:46:12.122Z,22.47
2019-05-21T15:48:41.041Z,22.39
2019-05-21T15:51:09.606Z,22.38
2019-05-21T15:53:38.229Z,22.28
2019-05-21T15:56:06.851Z,22.30
2019-05-21T15:58:35.527Z,22.39
2019-05-21T16:01:04.325Z,22.36
2019-05-21T16:03:32.955Z,22.31
2019-05-21T16:06:01.540Z,22.22
2019-05-21T16:08:30.205Z,22.27
2019-05-21T16:11:01.823Z,22.20
2019-05-21T16:13:31.244Z,22.18
2019-05-21T16:15:59.866Z,22.24
2019-05-21T16:18:28.561Z,22.41
2019-05-21T16:20:57.123Z,22.29
2019-05-21T16:23:25.736Z,22.25
2019-05-21T16:25:54.374Z,22.17
2019-05-21T16:28:23.017Z,21.94
2019-05-21T16:30:51.653Z,21.80
2019-05-21T16:33:23.295Z,21.70
2019-05-21T16:35:58.106Z,21.55
2019-05-21T16:38:26.717Z,21.50
2019-05-21T16:40:56.575Z,21.41
2019-05-21T16:43:25.204Z,21.22
2019-05-21T16:45:53.833Z,21.14
2019-05-21T16:48:22.467Z,21.07
2019-05-21T16:50:51.092Z,21.14
2019-05-21T16:53:19.981Z,21.01
2019-05-21T16:55:48.609Z,21.06
2019-05-21T16:58:17.270Z,21.01
2019-05-21T17:00:46.281Z,20.98
2019-05-21T17:03:15.155Z,20.93
2019-05-21T17:05:43.839Z,20.90
2019-05-21T17:08:13.950Z,20.85
2019-05-21T17:10:42.562Z,20.91
2019-05-21T17:13:11.157Z,20.93
2019-05-21T17:15:39.807Z,20.89
2019-05-21T17:18:08.461Z,20.86
2019-05-21T17:20:38.018Z,20.83
2019-05-21T17:23:06.616Z,20.89
2019-05-21T17:25:35.283Z,20.73
2019-05-21T17:28:03.979Z,20.84
2019-05-21T17:30:32.589Z,20.79
2019-05-21T17:33:01.249Z,20.85
2019-05-21T17:35:29.856Z,20.72
2019-05-21T17:37:58.814Z,20.70
2019-05-21T17:40:27.390Z,20.68
2019-05-21T17:42:56.484Z,20.69
2019-05-21T17:45:25.194Z,20.57
2019-05-21T17:47:54.026Z,20.53
2019-05-21T17:50:22.800Z,20.53
2019-05-21T17:52:52.185Z,20.45
2019-05-21T17:55:20.995Z,20.35
2019-05-21T17:57:49.741Z,20.26
2019-05-21T18:00:21.793Z,20.17
2019-05-21T18:02:59.357Z,20.15
2019-05-21T18:05:29.072Z,20.12
2019-05-21T18:07:57.744Z,20.26
2019-05-21T18:10:27.787Z,20.20
2019-05-21T18:12:56.536Z,20.15
2019-05-21T18:15:25.656Z,20.13
2019-05-21T18:17:54.490Z,20.11
2019-05-21T18:20:23.442Z,20.08
2019-05-21T18:22:54.240Z,20.00
2019-05-21T18:25:24.493Z,20.00
2019-05-21T18:27:53.703Z,19.95
2019-05-21T18:30:23.308Z,20.03
2019-05-21T18:32:52.533Z,19.83
2019-05-21T18:35:21.608Z,19.82
2019-05-21T18:37:50.602Z,19.76
2019-05-21T18:40:19.868Z,19.71
2019-05-21T18:42:48.980Z,19.60
2019-05-21T18:48:10.301Z,19.53
2019-05-21T18:50:39.337Z,19.57
2019-05-21T18:53:08.288Z,19.51
2019-05-21T18:55:37.236Z,19.78
2019-05-21T18:58:06.227Z,19.32
2019-05-21T19:00:35.280Z,19.23
2019-05-21T19:03:04.126Z,19.25
2019-05-21T19:05:33.070Z,19.18
2019-05-21T19:08:02.032Z,19.16
2019-05-21T19:10:30.888Z,19.14
2019-05-21T19:13:01.026Z,19.09
2019-05-21T19:15:33.469Z,18.90
2019-05-21T19:18:02.423Z,18.94
2019-05-21T19:20:31.461Z,18.95
2019-05-21T19:23:00.343Z,18.86
2019-05-21T19:25:29.415Z,18.91
2019-05-21T19:27:58.941Z,18.77
2019-05-21T19:30:28.344Z,18.80
2019-05-21T19:32:57.417Z,18.73
2019-05-21T19:35:26.618Z,18.70
2019-05-21T19:37:59.095Z,18.76
2019-05-21T19:40:29.912Z,18.53
2019-05-21T19:42:58.587Z,18.54
2019-05-21T19:45:39.452Z,18.54
2019-05-21T19:48:08.193Z,18.43
2019-05-21T19:50:36.965Z,18.27
2019-05-21T19:53:08.266Z,18.28
2019-05-21T19:55:37.326Z,18.19
2019-05-21T19:58:06.031Z,18.47
2019-05-21T20:00:36.273Z,18.38
2019-05-21T20:03:05.470Z,18.28
2019-05-21T20:05:34.524Z,18.25
2019-05-21T20:08:04.025Z,18.13
2019-05-21T20:10:34.251Z,18.17
2019-05-21T20:13:03.139Z,18.11
2019-05-21T20:15:31.765Z,18.04
2019-05-21T20:18:07.474Z,17.99
2019-05-21T20:20:31.292Z,17.94
2019-05-21T20:23:00.564Z,18.01
2019-05-21T20:25:29.269Z,17.84
2019-05-21T20:27:57.998Z,17.88
2019-05-21T20:30:27.981Z,17.84
2019-05-21T20:32:58.144Z,17.93
2019-05-21T20:35:27.756Z,17.84
2019-05-21T20:37:57.316Z,17.79
2019-05-21T20:40:27.182Z,17.76
2019-05-21T20:42:56.051Z,17.88
2019-05-21T20:45:25.591Z,17.65
2019-05-21T20:47:54.270Z,17.65
2019-05-21T20:50:23.359Z,17.66
2019-05-21T20:52:52.047Z,17.58
2019-05-21T20:55:20.652Z,17.59
2019-05-21T20:57:49.453Z,17.62
2019-05-21T21:00:20.209Z,17.64
2019-05-21T21:02:48.965Z,17.69
2019-05-21T21:05:17.960Z,17.70
2019-05-21T21:07:46.862Z,17.68
2019-05-21T21:10:15.641Z,17.66
2019-05-21T21:12:44.691Z,17.68
2019-05-21T21:15:13.975Z,17.65
2019-05-21T21:17:44.090Z,17.66
2019-05-21T21:20:13.108Z,17.59
2019-05-21T21:22:41.838Z,17.59
2019-05-21T21:25:12.259Z,17.56
2019-05-21T21:27:42.359Z,17.51
2019-05-21T21:30:11.293Z,17.49
2019-05-21T21:32:40.026Z,17.68
2019-05-21T21:35:10.402Z,17.49
2019-05-21T21:37:39.162Z,17.47
2019-05-21T21:40:09.521Z,17.41
2019-05-21T21:42:38.436Z,17.45
2019-05-21T21:45:08.086Z,17.27
2019-05-21T21:47:37.578Z,17.33
2019-05-21T21:50:07.315Z,17.27
2019-05-21T21:52:36.813Z,17.23
2019-05-21T21:55:06.370Z,17.26
2019-05-21T21:57:35.036Z,17.14
2019-05-21T22:00:23.261Z,17.31
2019-05-21T22:02:51.922Z,17.18
2019-05-21T22:05:22.564Z,17.20
2019-05-21T22:07:51.663Z,17.17
2019-05-21T22:10:20.527Z,17.10
2019-05-21T22:12:49.232Z,17.20
2019-05-21T22:15:18.364Z,17.12
2019-05-21T22:17:47.390Z,17.07
2019-05-21T22:20:17.128Z,17.05
2019-05-21T22:22:45.830Z,17.03
2019-05-21T22:25:14.935Z,17.07
2019-05-21T22:27:43.566Z,17.08
2019-05-21T22:30:12.539Z,16.97
2019-05-21T22:32:41.302Z,17.10
2019-05-21T22:35:09.971Z,17.04
2019-05-21T22:37:39.185Z,17.08
2019-05-21T22:40:08.439Z,17.09
2019-05-21T22:42:37.234Z,17.06
2019-05-21T22:45:09.102Z,17.09
2019-05-21T22:47:38.087Z,17.01
2019-05-21T22:50:09.805Z,16.90
2019-05-21T22:52:38.586Z,17.00
2019-05-21T22:55:07.705Z,16.98
2019-05-21T22:57:36.394Z,16.89
2019-05-21T23:00:06.865Z,16.88
2019-05-21T23:02:37.152Z,16.91
2019-05-21T23:05:07.321Z,16.71
2019-05-21T23:07:36.149Z,16.82
2019-05-21T23:10:10.436Z,16.85
2019-05-21T23:12:39.641Z,16.82
2019-05-21T23:15:23.682Z,16.83
2019-05-21T23:17:40.410Z,16.82
2019-05-21T23:20:13.686Z,16.73
2019-05-21T23:22:43.114Z,16.76
2019-05-21T23:25:12.613Z,16.81
2019-05-21T23:27:41.718Z,16.64
2019-05-21T23:30:12.489Z,16.56
2019-05-21T23:32:42.252Z,16.65
2019-05-21T23:35:11.942Z,16.71
2019-05-21T23:37:42.268Z,16.59
2019-05-21T23:40:13.064Z,16.64
2019-05-21T23:42:42.955Z,16.57
2019-05-21T23:45:13.029Z,16.35
2019-05-21T23:47:41.927Z,16.28
2019-05-21T23:50:11.243Z,16.26
2019-05-21T23:52:40.438Z,16.21
2019-05-21T23:55:09.115Z,16.26
2019-05-21T23:57:39.023Z,16.05
